createdAt,value
2017-10-10T00:00:17.621Z,94.72
2017-10-10T00:02:44.422Z,94.83
2017-10-10T00:05:11.287Z,94.68
2017-10-10T00:07:38.097Z,94.53
2017-10-10T00:10:04.888Z,94.63
2017-10-10T00:12:32.425Z,94.70
2017-10-10T00:14:59.255Z,94.68
2017-10-10T00:17:26.098Z,94.82
2017-10-10T00:19:52.881Z,95.12
2017-10-10T00:22:19.764Z,95.36
2017-10-10T00:24:46.620Z,94.65
2017-10-10T00:27:13.420Z,95.24
2017-10-10T00:29:40.235Z,94.85
2017-10-10T00:32:07.099Z,94.55
2017-10-10T00:34:33.979Z,94.28
2017-10-10T00:37:00.817Z,94.51
2017-10-10T00:39:27.656Z,94.29
2017-10-10T00:41:54.485Z,94.18
2017-10-10T00:44:21.325Z,94.11
2017-10-10T00:46:48.320Z,94.26
2017-10-10T00:49:15.147Z,94.32
2017-10-10T00:51:41.958Z,94.24
2017-10-10T00:54:09.547Z,94.21
2017-10-10T00:56:37.649Z,94.15
2017-10-10T00:59:04.619Z,94.33
2017-10-10T01:01:31.515Z,94.61
2017-10-10T01:03:58.364Z,94.95
2017-10-10T01:06:25.261Z,94.70
2017-10-10T01:08:52.837Z,94.43
2017-10-10T01:11:20.385Z,94.41
2017-10-10T01:13:47.199Z,94.53
2017-10-10T01:16:14.119Z,94.34
2017-10-10T01:18:40.985Z,94.32
2017-10-10T01:21:07.889Z,94.54
2017-10-10T01:23:34.811Z,94.33
2017-10-10T01:26:01.688Z,94.41
2017-10-10T01:28:29.319Z,94.15
2017-10-10T01:30:56.161Z,94.03
2017-10-10T01:33:23.060Z,94.13
2017-10-10T01:35:49.965Z,93.83
2017-10-10T01:38:17.598Z,93.93
2017-10-10T01:40:44.503Z,93.89
2017-10-10T01:43:12.137Z,94.13
2017-10-10T01:45:39.023Z,93.73
2017-10-10T01:48:05.869Z,94.00
2017-10-10T01:50:32.743Z,93.79
2017-10-10T01:52:59.567Z,93.80
2017-10-10T01:55:26.385Z,93.76
2017-10-10T01:57:53.267Z,93.74
2017-10-10T02:00:20.162Z,93.66
2017-10-10T02:02:46.983Z,93.90
2017-10-10T02:05:13.826Z,93.78
2017-10-10T02:07:41.398Z,93.58
2017-10-10T02:10:08.254Z,93.57
2017-10-10T02:12:35.077Z,93.56
2017-10-10T02:15:01.909Z,93.57
2017-10-10T02:17:28.719Z,93.67
2017-10-10T02:19:55.627Z,93.68
2017-10-10T02:22:23.207Z,93.39
2017-10-10T02:24:50.036Z,93.21
2017-10-10T02:27:16.847Z,93.56
2017-10-10T02:29:43.665Z,93.40
2017-10-10T02:32:10.472Z,93.07
2017-10-10T02:34:37.298Z,93.38
2017-10-10T02:37:04.879Z,92.98
2017-10-10T02:39:31.709Z,93.05
2017-10-10T02:41:58.568Z,92.89
2017-10-10T02:44:25.369Z,93.39
2017-10-10T02:46:52.185Z,93.10
2017-10-10T02:49:19.059Z,92.76
2017-10-10T02:51:46.729Z,93.04
2017-10-10T02:54:13.578Z,93.29
2017-10-10T02:56:40.397Z,93.04
2017-10-10T02:59:07.205Z,93.31
2017-10-10T03:01:34.067Z,92.92
2017-10-10T03:04:00.915Z,92.96
2017-10-10T03:06:27.761Z,93.15
2017-10-10T03:08:54.626Z,93.37
2017-10-10T03:11:21.436Z,93.10
2017-10-10T03:13:48.985Z,93.30
2017-10-10T03:16:15.813Z,93.15
2017-10-10T03:18:42.636Z,93.04
2017-10-10T03:21:10.209Z,93.18
2017-10-10T03:23:37.785Z,93.31
2017-10-10T03:26:04.638Z,93.45
2017-10-10T03:28:31.444Z,93.31
2017-10-10T03:30:58.275Z,93.15
2017-10-10T03:33:25.853Z,93.18
2017-10-10T03:35:53.455Z,93.15
2017-10-10T03:38:20.331Z,93.28
2017-10-10T03:40:47.166Z,93.27
2017-10-10T03:43:13.984Z,93.29
2017-10-10T03:45:40.831Z,93.35
2017-10-10T03:48:07.633Z,93.22
2017-10-10T03:50:35.192Z,93.49
2017-10-10T03:53:02.018Z,93.42
2017-10-10T03:55:28.857Z,93.20
2017-10-10T03:57:55.685Z,93.36
2017-10-10T04:00:22.496Z,93.26
2017-10-10T04:02:49.309Z,93.70
2017-10-10T04:05:16.137Z,93.37
2017-10-10T04:07:42.906Z,93.67
2017-10-10T04:10:09.741Z,93.51
2017-10-10T04:12:36.552Z,93.47
2017-10-10T04:15:04.163Z,93.39
2017-10-10T04:17:31.012Z,93.64
2017-10-10T04:19:57.812Z,93.43
2017-10-10T04:22:24.683Z,93.52
2017-10-10T04:24:51.529Z,93.57
2017-10-10T04:27:18.367Z,93.32
2017-10-10T04:29:45.183Z,93.58
2017-10-10T04:32:11.988Z,93.48
2017-10-10T04:34:38.842Z,93.91
2017-10-10T04:37:05.664Z,93.61
2017-10-10T04:39:32.494Z,94.20
2017-10-10T04:41:59.301Z,94.24
2017-10-10T04:44:26.875Z,93.85
2017-10-10T04:46:53.807Z,93.76
2017-10-10T04:49:20.639Z,94.31
2017-10-10T04:51:47.471Z,94.03
2017-10-10T04:54:15.048Z,94.14
2017-10-10T04:56:42.615Z,94.41
2017-10-10T04:59:09.848Z,94.60
2017-10-10T05:01:36.717Z,94.38
2017-10-10T05:04:03.537Z,94.40
2017-10-10T05:06:30.329Z,94.53
2017-10-10T05:08:57.160Z,94.49
2017-10-10T05:11:24.042Z,94.53
2017-10-10T05:13:50.904Z,94.56
2017-10-10T05:16:17.744Z,94.83
2017-10-10T05:18:44.617Z,94.55
2017-10-10T05:21:11.584Z,94.79
2017-10-10T05:23:38.418Z,94.71
2017-10-10T05:26:05.265Z,94.77
2017-10-10T05:28:32.873Z,95.11
2017-10-10T05:30:59.731Z,95.47
2017-10-10T05:33:26.584Z,94.90
2017-10-10T05:35:53.387Z,95.02
2017-10-10T05:38:20.265Z,95.27
2017-10-10T05:40:47.083Z,95.21
2017-10-10T05:43:13.932Z,95.30
2017-10-10T05:45:40.771Z,96.32
2017-10-10T05:48:08.349Z,95.86
2017-10-10T05:50:35.924Z,95.77
2017-10-10T05:53:02.763Z,95.48
2017-10-10T05:55:29.622Z,96.04
2017-10-10T05:57:56.468Z,95.57
2017-10-10T06:00:23.285Z,96.33
2017-10-10T06:02:50.104Z,95.75
2017-10-10T06:05:16.955Z,95.69
2017-10-10T06:07:43.845Z,95.98
2017-10-10T06:10:10.717Z,95.97
2017-10-10T06:12:38.300Z,96.22
2017-10-10T06:15:05.899Z,95.87
2017-10-10T06:17:32.736Z,95.97
2017-10-10T06:19:59.581Z,96.16
2017-10-10T06:22:26.404Z,96.23
2017-10-10T06:24:53.218Z,96.28
2017-10-10T06:27:20.791Z,96.19
2017-10-10T06:29:47.621Z,96.31
2017-10-10T06:32:14.393Z,96.11
2017-10-10T06:34:41.234Z,96.26
2017-10-10T06:37:08.058Z,96.56
2017-10-10T06:39:34.863Z,96.19
2017-10-10T06:42:01.678Z,96.43
2017-10-10T06:44:28.564Z,96.30
2017-10-10T06:46:55.413Z,96.82
2017-10-10T06:49:22.237Z,96.49
2017-10-10T06:51:49.846Z,96.42
2017-10-10T06:54:16.673Z,96.77
2017-10-10T06:56:43.506Z,96.50
2017-10-10T06:59:10.321Z,96.71
2017-10-10T07:01:37.133Z,96.83
2017-10-10T07:04:03.966Z,97.18
2017-10-10T07:06:30.804Z,96.93
2017-10-10T07:08:57.628Z,97.01
2017-10-10T07:11:24.657Z,97.15
2017-10-10T07:13:51.471Z,97.12
2017-10-10T07:16:19.007Z,97.77
2017-10-10T07:18:45.837Z,98.13
2017-10-10T07:21:12.651Z,98.10
2017-10-10T07:23:39.510Z,98.22
2017-10-10T07:26:06.353Z,97.88
2017-10-10T07:28:33.220Z,97.96
2017-10-10T07:31:00.057Z,98.05
2017-10-10T07:33:26.892Z,98.61
2017-10-10T07:35:53.688Z,97.86
2017-10-10T07:38:20.551Z,99.01
2017-10-10T07:40:47.406Z,98.27
2017-10-10T07:43:14.219Z,98.33
2017-10-10T07:45:41.773Z,98.66
2017-10-10T07:48:08.607Z,98.03
2017-10-10T07:50:35.403Z,98.35
2017-10-10T07:53:02.259Z,97.83
2017-10-10T07:55:29.140Z,98.03
2017-10-10T07:57:56.691Z,98.62
2017-10-10T08:00:23.521Z,97.68
2017-10-10T08:02:50.331Z,97.74
2017-10-10T08:05:17.176Z,97.98
2017-10-10T08:07:44.013Z,98.11
2017-10-10T08:10:10.826Z,97.44
2017-10-10T08:12:38.383Z,97.53
2017-10-10T08:15:05.251Z,97.46
2017-10-10T08:17:32.088Z,97.48
2017-10-10T08:19:58.925Z,97.55
2017-10-10T08:22:25.758Z,97.47
2017-10-10T08:24:52.623Z,97.37
2017-10-10T08:27:19.440Z,97.25
2017-10-10T08:29:46.317Z,97.44
2017-10-10T08:32:13.988Z,97.01
2017-10-10T08:34:40.834Z,97.44
2017-10-10T08:37:07.699Z,96.93
2017-10-10T08:39:34.567Z,97.53
2017-10-10T08:42:01.400Z,96.98
2017-10-10T08:44:28.256Z,96.62
2017-10-10T08:46:55.069Z,96.22
2017-10-10T08:49:22.618Z,96.46
2017-10-10T08:51:49.432Z,96.41
2017-10-10T08:54:16.268Z,96.48
2017-10-10T08:56:43.892Z,96.50
2017-10-10T08:59:10.771Z,95.71
2017-10-10T09:01:37.627Z,96.13
2017-10-10T09:04:04.482Z,95.36
2017-10-10T09:06:31.355Z,95.99
2017-10-10T09:08:58.182Z,95.55
2017-10-10T09:11:25.028Z,95.35
2017-10-10T09:13:52.595Z,95.37
2017-10-10T09:16:20.164Z,95.24
2017-10-10T09:18:47.839Z,95.38
2017-10-10T09:21:14.683Z,94.69
2017-10-10T09:23:41.557Z,93.44
2017-10-10T09:26:08.388Z,94.20
2017-10-10T09:28:35.250Z,93.82
2017-10-10T09:31:02.094Z,92.55
2017-10-10T09:33:28.947Z,93.38
2017-10-10T09:35:55.795Z,92.56
2017-10-10T09:38:23.364Z,93.29
2017-10-10T09:40:50.908Z,92.57
2017-10-10T09:43:17.735Z,92.63
2017-10-10T09:45:44.599Z,93.24
2017-10-10T09:48:11.405Z,91.26
2017-10-10T09:50:38.217Z,91.63
2017-10-10T09:53:05.081Z,92.05
2017-10-10T09:55:31.903Z,91.68
2017-10-10T09:57:59.479Z,91.20
2017-10-10T10:00:27.045Z,91.56
2017-10-10T10:02:53.886Z,90.78
2017-10-10T10:05:20.705Z,90.17
2017-10-10T10:07:47.521Z,90.14
2017-10-10T10:10:14.315Z,90.32
2017-10-10T10:12:41.179Z,90.75
2017-10-10T10:15:08.010Z,90.42
2017-10-10T10:17:34.851Z,90.15
2017-10-10T10:20:01.683Z,89.64
2017-10-10T10:22:28.494Z,88.83
2017-10-10T10:24:55.327Z,89.80
2017-10-10T10:27:22.231Z,88.32
2017-10-10T10:29:49.802Z,89.24
2017-10-10T10:32:17.394Z,88.42
2017-10-10T10:34:44.947Z,86.71
2017-10-10T10:37:11.738Z,85.84
2017-10-10T10:39:38.553Z,86.90
2017-10-10T10:42:07.087Z,87.88
2017-10-10T10:44:34.677Z,87.49
2017-10-10T10:47:01.525Z,87.28
2017-10-10T10:49:29.073Z,86.14
2017-10-10T10:51:55.921Z,86.08
2017-10-10T10:54:22.895Z,86.56
2017-10-10T10:56:49.771Z,86.31
2017-10-10T10:59:16.653Z,86.20
2017-10-10T11:01:44.215Z,87.16
2017-10-10T11:04:11.073Z,86.93
2017-10-10T11:06:37.890Z,86.68
2017-10-10T11:09:04.754Z,86.42
2017-10-10T11:11:31.559Z,85.99
2017-10-10T11:13:58.384Z,86.05
2017-10-10T11:16:25.227Z,85.58
2017-10-10T11:18:52.056Z,84.25
2017-10-10T11:21:19.637Z,84.54
2017-10-10T11:23:47.217Z,83.87
2017-10-10T11:26:14.787Z,84.66
2017-10-10T11:28:42.333Z,84.54
2017-10-10T11:31:09.178Z,84.90
2017-10-10T11:33:35.988Z,85.80
2017-10-10T11:36:03.601Z,84.53
2017-10-10T11:38:30.475Z,84.75
2017-10-10T11:40:57.301Z,84.21
2017-10-10T11:43:24.098Z,84.99
2017-10-10T11:45:50.904Z,84.60
2017-10-10T11:48:18.434Z,83.45
2017-10-10T11:50:45.270Z,84.36
2017-10-10T11:53:12.072Z,84.72
2017-10-10T11:55:38.882Z,84.21
2017-10-10T11:58:05.718Z,84.37
2017-10-10T12:00:32.602Z,82.06
2017-10-10T12:02:59.451Z,83.39
2017-10-10T12:05:27.016Z,83.36
2017-10-10T12:07:54.592Z,82.10
2017-10-10T12:10:21.457Z,82.82
2017-10-10T12:12:48.271Z,82.66
2017-10-10T12:15:15.095Z,82.63
2017-10-10T12:17:42.632Z,82.79
2017-10-10T12:20:09.459Z,83.01
2017-10-10T12:22:36.267Z,82.12
2017-10-10T12:25:03.094Z,82.13
2017-10-10T12:27:30.358Z,82.38
2017-10-10T12:29:57.245Z,81.97
2017-10-10T12:32:24.028Z,82.26
2017-10-10T12:34:50.838Z,82.30
2017-10-10T12:37:17.649Z,81.31
2017-10-10T12:39:45.229Z,82.48
2017-10-10T12:42:12.057Z,82.81
2017-10-10T12:44:39.083Z,82.48
2017-10-10T12:47:06.659Z,82.38
2017-10-10T12:49:37.916Z,83.08
2017-10-10T13:05:04.955Z,83.05
2017-10-10T13:07:31.850Z,82.83
2017-10-10T13:09:58.694Z,82.63
2017-10-10T13:12:25.536Z,82.68
2017-10-10T13:14:52.365Z,83.25
2017-10-10T13:17:19.984Z,82.85
2017-10-10T13:19:46.811Z,82.65
2017-10-10T13:22:14.432Z,82.38
2017-10-10T13:24:41.327Z,81.69
2017-10-10T13:27:08.953Z,83.08
2017-10-10T13:29:35.888Z,83.12
2017-10-10T13:32:03.783Z,82.94
2017-10-10T13:34:30.653Z,82.67
2017-10-10T13:36:57.677Z,81.81
2017-10-10T13:39:24.601Z,82.24
2017-10-10T13:41:51.481Z,82.25
2017-10-10T13:44:18.649Z,81.56
2017-10-10T13:46:45.517Z,81.96
2017-10-10T13:49:12.394Z,81.91
2017-10-10T13:51:39.311Z,81.84
2017-10-10T13:54:06.162Z,82.12
2017-10-10T13:56:33.056Z,81.54
2017-10-10T13:58:59.904Z,81.86
2017-10-10T14:01:26.724Z,81.76
2017-10-10T14:03:54.328Z,81.67
2017-10-10T14:06:21.168Z,82.10
2017-10-10T14:08:48.063Z,81.53
2017-10-10T14:11:14.884Z,81.70
2017-10-10T14:13:41.724Z,82.20
2017-10-10T14:16:08.605Z,82.60
2017-10-10T14:18:35.460Z,82.91
2017-10-10T14:21:02.288Z,83.09
2017-10-10T14:23:29.132Z,83.27
2017-10-10T14:25:55.994Z,83.20
2017-10-10T14:28:22.833Z,83.12
2017-10-10T14:30:49.695Z,82.98
2017-10-10T14:33:16.536Z,83.41
2017-10-10T14:35:44.166Z,83.12
2017-10-10T14:38:11.017Z,82.96
2017-10-10T14:40:38.069Z,83.66
2017-10-10T14:43:04.927Z,84.48
2017-10-10T14:45:31.796Z,85.33
2017-10-10T14:47:58.669Z,85.81
2017-10-10T14:50:25.547Z,86.28
2017-10-10T14:52:52.386Z,86.38
2017-10-10T14:55:19.216Z,86.48
2017-10-10T14:57:46.785Z,86.36
2017-10-10T15:00:14.360Z,87.34
2017-10-10T15:02:41.236Z,87.50
2017-10-10T15:05:08.887Z,87.56
2017-10-10T15:07:35.749Z,88.70
2017-10-10T15:10:02.607Z,88.34
2017-10-10T15:12:29.447Z,88.71
2017-10-10T15:14:56.302Z,88.76
2017-10-10T15:17:23.093Z,90.25
2017-10-10T15:19:49.900Z,89.13
2017-10-10T15:22:16.712Z,89.24
2017-10-10T15:24:43.555Z,89.52
2017-10-10T15:27:10.358Z,90.78
2017-10-10T15:29:37.256Z,90.20
2017-10-10T15:32:04.159Z,89.63
2017-10-10T15:34:31.039Z,89.77
2017-10-10T15:36:57.856Z,89.50
2017-10-10T15:39:25.570Z,89.70
2017-10-10T15:41:52.408Z,91.25
2017-10-10T15:44:19.293Z,90.54
2017-10-10T15:46:46.093Z,90.42
2017-10-10T15:49:12.908Z,90.10
2017-10-10T15:51:40.677Z,90.19
2017-10-10T15:54:08.381Z,91.41
2017-10-10T15:56:35.145Z,91.22
2017-10-10T15:59:01.952Z,89.93
2017-10-10T16:01:28.757Z,90.82
2017-10-10T16:03:55.601Z,90.11
2017-10-10T16:06:23.381Z,90.20
2017-10-10T16:08:50.982Z,91.23
2017-10-10T16:11:17.815Z,89.98
2017-10-10T16:13:44.660Z,90.41
2017-10-10T16:16:11.470Z,90.64
2017-10-10T16:18:38.264Z,90.20
2017-10-10T16:21:05.093Z,90.72
2017-10-10T16:23:31.929Z,90.64
2017-10-10T16:25:58.755Z,90.63
2017-10-10T16:28:25.660Z,90.55
2017-10-10T16:30:52.543Z,90.58
2017-10-10T16:33:20.689Z,90.59
2017-10-10T16:35:47.576Z,90.86
2017-10-10T16:38:14.673Z,90.82
2017-10-10T16:40:42.334Z,91.00
2017-10-10T16:43:09.241Z,91.33
2017-10-10T16:45:36.097Z,90.76
2017-10-10T16:48:02.946Z,90.50
2017-10-10T16:50:29.899Z,90.63
2017-10-10T16:52:57.440Z,90.79
2017-10-10T16:55:24.257Z,90.84
2017-10-10T16:57:51.091Z,90.71
2017-10-10T17:00:18.632Z,90.62
2017-10-10T17:02:45.455Z,90.61
2017-10-10T17:05:12.274Z,90.95
2017-10-10T17:07:39.099Z,90.67
2017-10-10T17:10:06.433Z,91.06
2017-10-10T17:12:33.273Z,91.09
2017-10-10T17:15:00.088Z,91.10
2017-10-10T17:17:27.454Z,91.09
2017-10-10T17:19:54.338Z,91.21
2017-10-10T17:22:21.166Z,90.95
2017-10-10T17:24:48.002Z,91.13
2017-10-10T17:27:14.838Z,91.07
2017-10-10T17:29:41.663Z,91.21
2017-10-10T17:32:08.560Z,91.06
2017-10-10T17:34:35.424Z,91.81
2017-10-10T17:37:02.359Z,91.12
2017-10-10T17:39:29.206Z,91.24
2017-10-10T17:41:56.281Z,91.45
2017-10-10T17:44:23.210Z,91.47
2017-10-10T17:46:50.817Z,91.43
2017-10-10T17:49:17.761Z,91.83
2017-10-10T17:51:44.655Z,92.14
2017-10-10T17:54:12.001Z,91.72
2017-10-10T17:56:39.487Z,92.18
2017-10-10T17:59:06.489Z,91.41
2017-10-10T18:01:33.408Z,91.85
2017-10-10T18:04:00.312Z,91.81
2017-10-10T18:06:27.435Z,91.81
2017-10-10T18:08:55.127Z,91.86
2017-10-10T18:11:22.631Z,92.01
2017-10-10T18:13:50.538Z,91.94
2017-10-10T18:16:18.427Z,91.96
2017-10-10T18:18:47.195Z,92.20
2017-10-10T18:21:16.182Z,91.83
2017-10-10T18:23:44.252Z,92.61
2017-10-10T18:26:12.320Z,92.31
2017-10-10T18:28:41.147Z,92.21
2017-10-10T18:31:09.967Z,91.98
2017-10-10T18:33:39.111Z,92.29
2017-10-10T18:36:08.221Z,91.97
2017-10-10T18:38:37.765Z,92.42
2017-10-10T18:41:06.799Z,92.04
2017-10-10T18:43:35.838Z,92.33
2017-10-10T18:46:05.552Z,92.33
2017-10-10T18:48:34.235Z,92.23
2017-10-10T18:51:03.019Z,92.30
2017-10-10T18:53:31.821Z,92.16
2017-10-10T18:56:00.651Z,92.22
2017-10-10T18:58:29.648Z,92.55
2017-10-10T19:00:58.472Z,92.40
2017-10-10T19:03:27.237Z,92.11
2017-10-10T19:05:56.992Z,92.18
2017-10-10T19:08:25.801Z,92.17
2017-10-10T19:10:54.757Z,92.28
2017-10-10T19:13:24.435Z,92.20
2017-10-10T19:15:52.888Z,92.12
2017-10-10T19:18:21.788Z,92.17
2017-10-10T19:20:50.565Z,92.03
2017-10-10T19:23:18.575Z,92.02
2017-10-10T19:25:47.095Z,91.99
2017-10-10T19:28:15.817Z,92.22
2017-10-10T19:30:44.633Z,92.01
2017-10-10T19:33:14.345Z,91.87
2017-10-10T19:35:43.153Z,91.82
2017-10-10T19:38:11.537Z,91.46
2017-10-10T19:40:40.085Z,91.67
2017-10-10T19:43:08.947Z,91.73
2017-10-10T19:45:37.629Z,91.70
2017-10-10T19:48:06.189Z,91.76
2017-10-10T19:50:39.859Z,91.61
2017-10-10T19:53:07.748Z,91.73
2017-10-10T19:55:34.724Z,91.86
2017-10-10T19:58:02.157Z,91.85
2017-10-10T20:00:37.435Z,91.67
2017-10-10T20:03:09.862Z,91.77
2017-10-10T20:05:38.081Z,91.70
2017-10-10T20:08:09.673Z,91.81
2017-10-10T20:10:36.959Z,91.75
2017-10-10T20:13:04.178Z,91.77
2017-10-10T20:15:31.727Z,92.33
2017-10-10T20:17:58.610Z,92.18
2017-10-10T20:20:30.950Z,91.87
2017-10-10T20:22:58.240Z,91.91
2017-10-10T20:25:25.281Z,91.75
2017-10-10T20:27:53.161Z,91.80
2017-10-10T20:30:20.442Z,91.72
2017-10-10T20:32:54.320Z,91.67
2017-10-10T20:35:22.884Z,91.69
2017-10-10T20:37:55.500Z,91.38
2017-10-10T20:40:22.655Z,91.47
2017-10-10T20:42:50.023Z,91.50
2017-10-10T20:45:22.522Z,91.77
2017-10-10T20:47:49.872Z,91.31
2017-10-10T20:50:17.412Z,91.49
2017-10-10T20:52:44.678Z,91.49
2017-10-10T20:55:11.865Z,91.83
2017-10-10T20:57:39.222Z,91.63
2017-10-10T21:00:12.016Z,91.63
2017-10-10T21:02:44.136Z,91.50
2017-10-10T21:05:11.062Z,91.51
2017-10-10T21:07:39.373Z,91.40
2017-10-10T21:10:07.140Z,91.33
2017-10-10T21:12:34.642Z,91.55
2017-10-10T21:15:01.686Z,91.41
2017-10-10T21:17:31.087Z,91.52
2017-10-10T21:19:58.505Z,91.36
2017-10-10T21:22:29.706Z,91.31
2017-10-10T21:24:57.632Z,91.31
2017-10-10T21:27:26.430Z,91.06
2017-10-10T21:29:59.444Z,91.32
2017-10-10T21:32:27.084Z,91.23
2017-10-10T21:34:57.294Z,91.19
2017-10-10T21:37:29.408Z,91.18
2017-10-10T21:40:01.467Z,91.24
2017-10-10T21:42:31.548Z,91.01
2017-10-10T21:44:58.876Z,90.91
2017-10-10T21:47:26.214Z,90.93
2017-10-10T21:49:58.303Z,90.65
2017-10-10T21:52:25.248Z,90.98
2017-10-10T21:54:56.095Z,90.86
2017-10-10T21:57:24.097Z,90.65
2017-10-10T21:59:56.460Z,90.73
2017-10-10T22:02:26.359Z,90.79
2017-10-10T22:04:54.312Z,90.74
2017-10-10T22:07:21.942Z,90.46
2017-10-10T22:09:49.172Z,90.64
2017-10-10T22:12:16.068Z,90.68
2017-10-10T22:14:43.438Z,90.68
2017-10-10T22:17:10.660Z,90.51
2017-10-10T22:19:42.748Z,90.81
2017-10-10T22:22:10.691Z,90.77
2017-10-10T22:24:37.557Z,90.85
2017-10-10T22:27:10.839Z,90.62
2017-10-10T22:29:41.509Z,90.68
2017-10-10T22:32:08.390Z,90.60
2017-10-10T22:34:35.547Z,90.60
2017-10-10T22:37:07.659Z,90.46
2017-10-10T22:39:36.236Z,90.46
2017-10-10T22:42:08.423Z,90.19
2017-10-10T22:44:39.165Z,90.00
2017-10-10T22:47:06.827Z,90.28
2017-10-10T22:49:33.758Z,90.08
2017-10-10T22:52:05.927Z,90.01
2017-10-10T22:54:38.083Z,89.87
2017-10-10T22:57:06.923Z,89.97
2017-10-10T22:59:34.190Z,89.74
2017-10-10T23:02:01.522Z,89.96
2017-10-10T23:04:34.633Z,89.78
2017-10-10T23:07:01.689Z,89.78
2017-10-10T23:09:28.670Z,89.42
2017-10-10T23:12:01.336Z,89.69
2017-10-10T23:14:28.172Z,89.81
2017-10-10T23:16:55.042Z,89.80
2017-10-10T23:19:21.876Z,89.39
2017-10-10T23:21:48.751Z,89.44
2017-10-10T23:24:15.617Z,89.35
2017-10-10T23:26:42.427Z,89.50
2017-10-10T23:29:09.316Z,89.47
2017-10-10T23:31:36.868Z,89.47
2017-10-10T23:34:03.712Z,89.68
2017-10-10T23:36:30.546Z,89.67
2017-10-10T23:38:57.380Z,89.76
2017-10-10T23:41:24.224Z,89.63
2017-10-10T23:43:51.809Z,89.38
2017-10-10T23:46:19.366Z,89.80
2017-10-10T23:48:46.211Z,89.73
2017-10-10T23:51:13.045Z,89.72
2017-10-10T23:53:39.860Z,89.57
2017-10-10T23:56:06.730Z,89.61
2017-10-10T23:58:34.300Z,89.41
